sensor_id;sensor_type;location;lat;lon;timestamp;temperature;humidity
28297;DHT22;62078;49.366;8.172;2023-05-16T17:06:02;19.30;47.30
28297;DHT22;62078;49.366;8.172;2023-05-16T17:08:28;19.30;47.50
28297;DHT22;62078;49.366;8.172;2023-05-16T17:10:53;19.30;47.50
28297;DHT22;62078;49.366;8.172;2023-05-16T17:13:19;19.30;47.50
28297;DHT22;62078;49.366;8.172;2023-05-16T17:15:45;19.30;47.50
28297;DHT22;62078;49.366;8.172;2023-05-16T17:18:12;19.30;47.40
28297;DHT22;62078;49.366;8.172;2023-05-16T17:20:38;19.30;47.30
28297;DHT22;62078;49.366;8.172;2023-05-16T17:23:04;19.20;47.40
28297;DHT22;62078;49.366;8.172;2023-05-16T17:25:30;19.30;47.50
28297;DHT22;62078;49.366;8.172;2023-05-16T17:27:56;19.30;47.40
28297;DHT22;62078;49.366;8.172;2023-05-16T17:30:22;19.30;47.30
28297;DHT22;62078;49.366;8.172;2023-05-16T17:32:48;19.30;47.20
28297;DHT22;62078;49.366;8.172;2023-05-16T17:35:13;19.30;47.20
28297;DHT22;62078;49.366;8.172;2023-05-16T17:37:39;19.30;47.10
28297;DHT22;62078;49.366;8.172;2023-05-16T17:40:06;19.30;47.00
28297;DHT22;62078;49.366;8.172;2023-05-16T17:42:34;19.30;47.00
28297;DHT22;62078;49.366;8.172;2023-05-16T17:45:00;19.30;47.00
28297;DHT22;62078;49.366;8.172;2023-05-16T17:47:28;19.30;46.80
28297;DHT22;62078;49.366;8.172;2023-05-16T17:49:54;19.30;46.80
28297;DHT22;62078;49.366;8.172;2023-05-16T17:52:20;19.30;46.70
28297;DHT22;62078;49.366;8.172;2023-05-16T17:54:47;19.30;46.80
28297;DHT22;62078;49.366;8.172;2023-05-16T17:57:13;19.30;46.80
28297;DHT22;62078;49.366;8.172;2023-05-16T17:59:39;19.30;46.80
28297;DHT22;62078;49.366;8.172;2023-05-16T18:02:05;19.30;46.80
28297;DHT22;62078;49.366;8.172;2023-05-16T18:04:34;19.30;46.80
28297;DHT22;62078;49.366;8.172;2023-05-16T18:07:00;19.30;46.90
28297;DHT22;62078;49.366;8.172;2023-05-16T18:09:25;19.20;46.90
28297;DHT22;62078;49.366;8.172;2023-05-16T18:11:51;19.20;46.90
28297;DHT22;62078;49.366;8.172;2023-05-16T18:14:18;19.30;47.00
28297;DHT22;62078;49.366;8.172;2023-05-16T18:16:44;19.30;47.10
28297;DHT22;62078;49.366;8.172;2023-05-16T18:19:09;19.20;47.10
28297;DHT22;62078;49.366;8.172;2023-05-16T18:21:36;19.20;47.20
28297;DHT22;62078;49.366;8.172;2023-05-16T18:24:02;19.20;47.30
28297;DHT22;62078;49.366;8.172;2023-05-16T18:26:28;19.20;47.40
28297;DHT22;62078;49.366;8.172;2023-05-16T18:28:54;19.20;47.50
28297;DHT22;62078;49.366;8.172;2023-05-16T18:31:20;19.20;47.60
28297;DHT22;62078;49.366;8.172;2023-05-16T18:33:46;19.20;47.70
28297;DHT22;62078;49.366;8.172;2023-05-16T18:36:12;19.20;47.80
28297;DHT22;62078;49.366;8.172;2023-05-16T18:38:40;19.20;47.80
28297;DHT22;62078;49.366;8.172;2023-05-16T18:41:06;19.20;47.80
28297;DHT22;62078;49.366;8.172;2023-05-16T18:43:32;19.20;47.90
28297;DHT22;62078;49.366;8.172;2023-05-16T18:46:01;19.20;48.00
28297;DHT22;62078;49.366;8.172;2023-05-16T18:48:26;19.20;48.00
28297;DHT22;62078;49.366;8.172;2023-05-16T18:50:52;19.20;48.30
28297;DHT22;62078;49.366;8.172;2023-05-16T18:53:18;19.20;48.30
28297;DHT22;62078;49.366;8.172;2023-05-16T18:55:44;19.20;48.50
28297;DHT22;62078;49.366;8.172;2023-05-16T18:58:09;19.20;48.80
28297;DHT22;62078;49.366;8.172;2023-05-16T19:00:35;19.20;49.10
28297;DHT22;62078;49.366;8.172;2023-05-16T19:03:01;19.20;49.20
28297;DHT22;62078;49.366;8.172;2023-05-16T19:05:27;19.20;49.50
28297;DHT22;62078;49.366;8.172;2023-05-16T19:07:53;19.20;49.60
28297;DHT22;62078;49.366;8.172;2023-05-16T19:10:19;19.20;49.70
28297;DHT22;62078;49.366;8.172;2023-05-16T19:12:44;19.20;49.80
28297;DHT22;62078;49.366;8.172;2023-05-16T19:15:13;19.20;49.80
28297;DHT22;62078;49.366;8.172;2023-05-16T19:17:39;19.20;50.00
28297;DHT22;62078;49.366;8.172;2023-05-16T19:20:06;19.20;50.10
28297;DHT22;62078;49.366;8.172;2023-05-16T19:22:34;19.20;50.20
28297;DHT22;62078;49.366;8.172;2023-05-16T19:25:00;19.30;50.30
28297;DHT22;62078;49.366;8.172;2023-05-16T19:27:26;19.30;50.40
28297;DHT22;62078;49.366;8.172;2023-05-16T19:29:56;19.30;50.60
28297;DHT22;62078;49.366;8.172;2023-05-16T19:32:22;19.20;50.50
28297;DHT22;62078;49.366;8.172;2023-05-16T19:34:47;19.30;50.70
28297;DHT22;62078;49.366;8.172;2023-05-16T19:37:13;19.30;50.80
28297;DHT22;62078;49.366;8.172;2023-05-16T19:39:39;19.20;50.80
28297;DHT22;62078;49.366;8.172;2023-05-16T19:42:05;19.30;50.90
28297;DHT22;62078;49.366;8.172;2023-05-16T19:44:30;19.20;51.00
28297;DHT22;62078;49.366;8.172;2023-05-16T19:46:56;19.20;51.00
28297;DHT22;62078;49.366;8.172;2023-05-16T19:49:22;19.20;51.20
28297;DHT22;62078;49.366;8.172;2023-05-16T19:51:47;19.30;51.30
28297;DHT22;62078;49.366;8.172;2023-05-16T19:54:13;19.20;51.20
28297;DHT22;62078;49.366;8.172;2023-05-16T19:56:39;19.20;51.30
28297;DHT22;62078;49.366;8.172;2023-05-16T19:59:04;19.30;50.90
28297;DHT22;62078;49.366;8.172;2023-05-16T20:01:30;19.20;50.00
28297;DHT22;62078;49.366;8.172;2023-05-16T20:03:56;19.20;50.00
28297;DHT22;62078;49.366;8.172;2023-05-16T20:06:22;19.20;49.90
28297;DHT22;62078;49.366;8.172;2023-05-16T20:08:47;19.20;50.20
28297;DHT22;62078;49.366;8.172;2023-05-16T20:11:13;19.20;50.50
28297;DHT22;62078;49.366;8.172;2023-05-16T20:13:39;19.10;50.60
28297;DHT22;62078;49.366;8.172;2023-05-16T20:16:05;19.10;50.80
28297;DHT22;62078;49.366;8.172;2023-05-16T20:18:31;19.10;50.90
28297;DHT22;62078;49.366;8.172;2023-05-16T20:20:56;19.20;51.00
28297;DHT22;62078;49.366;8.172;2023-05-16T20:23:22;19.10;51.10
28297;DHT22;62078;49.366;8.172;2023-05-16T20:25:48;19.10;51.20
28297;DHT22;62078;49.366;8.172;2023-05-16T20:28:13;19.10;51.20
28297;DHT22;62078;49.366;8.172;2023-05-16T20:30:39;19.20;51.30
28297;DHT22;62078;49.366;8.172;2023-05-16T20:33:05;19.10;51.30
28297;DHT22;62078;49.366;8.172;2023-05-16T20:35:30;19.10;51.40
28297;DHT22;62078;49.366;8.172;2023-05-16T20:37:56;19.10;51.50
28297;DHT22;62078;49.366;8.172;2023-05-16T20:40:21;19.20;51.60
28297;DHT22;62078;49.366;8.172;2023-05-16T20:42:47;19.20;51.60
28297;DHT22;62078;49.366;8.172;2023-05-16T20:45:13;19.10;51.60
28297;DHT22;62078;49.366;8.172;2023-05-16T20:47:39;19.10;51.70
28297;DHT22;62078;49.366;8.172;2023-05-16T20:50:05;19.10;51.80
28297;DHT22;62078;49.366;8.172;2023-05-16T20:52:31;19.10;51.80
28297;DHT22;62078;49.366;8.172;2023-05-16T20:54:57;19.10;51.90
28297;DHT22;62078;49.366;8.172;2023-05-16T20:57:23;19.10;52.00
28297;DHT22;62078;49.366;8.172;2023-05-16T20:59:48;19.10;52.00
28297;DHT22;62078;49.366;8.172;2023-05-16T21:02:14;19.10;52.10
28297;DHT22;62078;49.366;8.172;2023-05-16T21:04:40;19.10;52.10
28297;DHT22;62078;49.366;8.172;2023-05-16T21:07:06;19.10;52.10
28297;DHT22;62078;49.366;8.172;2023-05-16T21:09:32;19.10;52.20
28297;DHT22;62078;49.366;8.172;2023-05-16T21:11:58;19.10;52.30
28297;DHT22;62078;49.366;8.172;2023-05-16T21:14:24;19.10;52.40
28297;DHT22;62078;49.366;8.172;2023-05-16T21:16:50;19.10;52.40
28297;DHT22;62078;49.366;8.172;2023-05-16T21:19:17;19.00;52.40
28297;DHT22;62078;49.366;8.172;2023-05-16T21:21:42;19.10;52.50
28297;DHT22;62078;49.366;8.172;2023-05-16T21:24:08;19.00;52.50
28297;DHT22;62078;49.366;8.172;2023-05-16T21:26:34;19.00;52.70
28297;DHT22;62078;49.366;8.172;2023-05-16T21:29:00;19.10;52.60
28297;DHT22;62078;49.366;8.172;2023-05-16T21:31:25;19.00;52.60
28297;DHT22;62078;49.366;8.172;2023-05-16T21:33:51;19.10;52.70
28297;DHT22;62078;49.366;8.172;2023-05-16T21:36:18;19.00;52.70
28297;DHT22;62078;49.366;8.172;2023-05-16T21:38:43;19.10;52.70
28297;DHT22;62078;49.366;8.172;2023-05-16T21:41:09;19.00;52.70
28297;DHT22;62078;49.366;8.172;2023-05-16T21:43:35;19.00;52.80
28297;DHT22;62078;49.366;8.172;2023-05-16T21:46:01;19.00;52.90
28297;DHT22;62078;49.366;8.172;2023-05-16T21:48:27;19.00;52.80
28297;DHT22;62078;49.366;8.172;2023-05-16T21:50:52;19.00;52.90
28297;DHT22;62078;49.366;8.172;2023-05-16T21:53:18;19.00;52.90
28297;DHT22;62078;49.366;8.172;2023-05-16T21:55:44;19.00;52.90
28297;DHT22;62078;49.366;8.172;2023-05-16T21:58:09;19.10;53.00
28297;DHT22;62078;49.366;8.172;2023-05-16T22:00:35;19.10;53.00
28297;DHT22;62078;49.366;8.172;2023-05-16T22:03:01;19.10;53.10
28297;DHT22;62078;49.366;8.172;2023-05-16T22:05:26;19.00;53.00
28297;DHT22;62078;49.366;8.172;2023-05-16T22:07:52;19.00;53.10
28297;DHT22;62078;49.366;8.172;2023-05-16T22:10:18;19.00;53.10
28297;DHT22;62078;49.366;8.172;2023-05-16T22:12:43;19.10;53.20
28297;DHT22;62078;49.366;8.172;2023-05-16T22:15:09;19.10;53.10
28297;DHT22;62078;49.366;8.172;2023-05-16T22:17:35;19.00;53.20
28297;DHT22;62078;49.366;8.172;2023-05-16T22:20:01;19.10;53.20
28297;DHT22;62078;49.366;8.172;2023-05-16T22:22:27;19.00;53.20
28297;DHT22;62078;49.366;8.172;2023-05-16T22:24:53;19.10;53.30
28297;DHT22;62078;49.366;8.172;2023-05-16T22:27:18;19.00;53.30
28297;DHT22;62078;49.366;8.172;2023-05-16T22:29:44;19.00;53.30
28297;DHT22;62078;49.366;8.172;2023-05-16T22:32:10;19.10;53.40
28297;DHT22;62078;49.366;8.172;2023-05-16T22:34:36;19.10;53.40
28297;DHT22;62078;49.366;8.172;2023-05-16T22:37:08;19.10;53.40
28297;DHT22;62078;49.366;8.172;2023-05-16T22:39:34;19.00;53.50
28297;DHT22;62078;49.366;8.172;2023-05-16T22:42:00;19.00;53.50
28297;DHT22;62078;49.366;8.172;2023-05-16T22:44:26;19.00;53.50
28297;DHT22;62078;49.366;8.172;2023-05-16T22:46:52;19.00;53.50
28297;DHT22;62078;49.366;8.172;2023-05-16T22:49:18;19.00;53.60
28297;DHT22;62078;49.366;8.172;2023-05-16T22:51:44;19.00;53.60
28297;DHT22;62078;49.366;8.172;2023-05-16T22:54:10;19.00;53.60
28297;DHT22;62078;49.366;8.172;2023-05-16T22:56:36;19.00;53.70
28297;DHT22;62078;49.366;8.172;2023-05-16T22:59:02;19.00;53.60
28297;DHT22;62078;49.366;8.172;2023-05-16T23:01:27;19.00;53.70
28297;DHT22;62078;49.366;8.172;2023-05-16T23:03:53;19.00;53.70
28297;DHT22;62078;49.366;8.172;2023-05-16T23:06:19;19.00;53.70
28297;DHT22;62078;49.366;8.172;2023-05-16T23:08:44;19.00;53.70
28297;DHT22;62078;49.366;8.172;2023-05-16T23:11:10;19.00;53.80
28297;DHT22;62078;49.366;8.172;2023-05-16T23:13:36;19.00;53.80
28297;DHT22;62078;49.366;8.172;2023-05-16T23:16:01;19.00;53.80
28297;DHT22;62078;49.366;8.172;2023-05-16T23:18:27;19.00;53.80
28297;DHT22;62078;49.366;8.172;2023-05-16T23:20:53;19.00;53.90
28297;DHT22;62078;49.366;8.172;2023-05-16T23:23:18;19.00;53.90
28297;DHT22;62078;49.366;8.172;2023-05-16T23:25:44;19.00;53.90
28297;DHT22;62078;49.366;8.172;2023-05-16T23:28:09;19.00;53.90
28297;DHT22;62078;49.366;8.172;2023-05-16T23:30:35;19.00;53.90
28297;DHT22;62078;49.366;8.172;2023-05-16T23:33:01;19.00;54.00
28297;DHT22;62078;49.366;8.172;2023-05-16T23:35:27;19.00;53.90
28297;DHT22;62078;49.366;8.172;2023-05-16T23:37:52;19.00;54.00
28297;DHT22;62078;49.366;8.172;2023-05-16T23:40:18;19.00;54.00
28297;DHT22;62078;49.366;8.172;2023-05-16T23:42:44;19.00;54.00
28297;DHT22;62078;49.366;8.172;2023-05-16T23:45:10;19.00;54.10
28297;DHT22;62078;49.366;8.172;2023-05-16T23:47:35;19.00;54.10
28297;DHT22;62078;49.366;8.172;2023-05-16T23:50:01;19.00;54.10
28297;DHT22;62078;49.366;8.172;2023-05-16T23:52:28;19.00;54.20
28297;DHT22;62078;49.366;8.172;2023-05-16T23:54:54;19.00;54.10
28297;DHT22;62078;49.366;8.172;2023-05-16T23:57:19;19.00;54.20
28297;DHT22;62078;49.366;8.172;2023-05-16T23:59:45;19.00;54.10
